Search for airport 
image banner adimage banner adimage banner ad
image banner ad

CN37 - Kelso Valley

Located in Mojave, United States

ICAO - CN37, IATA -

Data provided by Airmate  

General information

Coordinates: N35°23'1" W118°13'13"
Elevation is 4074 feet MSL.
Magnetic variation is 14° East
View others Airports in California

Operational data

Special qualification required
Current time UTC:
Current local time:
Weather at : KTSP - Tehachapi Muni ( 34 km )
METAR: KTSP 221255Z AUTO 00000KT 10SM CLR 12/00 A3006 RMK AO2
View NOTAMs / SUP AIP / TFR affecting this airport [VIEW]
Communications frequencies: [VIEW]

Runways:

RWY identifierQFULength (ft)Width (ft)SurfaceLDA (ft)
082673100EARTH
262673100EARTH
163436100EARTH
343436100EARTH

Airport contact information

Address: Mojave United States

Satellite view of CN37